createdAt,value
2018-05-07T00:00:43.667Z,13.1
2018-05-07T00:01:45.705Z,13.1
2018-05-07T00:02:47.742Z,13.1
2018-05-07T00:03:50.062Z,13
2018-05-07T00:04:52.091Z,12.9
2018-05-07T00:05:54.208Z,12.9
2018-05-07T00:06:56.555Z,12.8
2018-05-07T00:07:58.594Z,12.8
2018-05-07T00:09:00.914Z,12.9
2018-05-07T00:10:03.264Z,12.8
2018-05-07T00:11:05.299Z,12.8
2018-05-07T00:12:07.319Z,12.8
2018-05-07T00:13:09.357Z,12.7
2018-05-07T00:14:11.407Z,12.7
2018-05-07T00:15:13.446Z,12.8
2018-05-07T00:16:15.477Z,12.8
2018-05-07T00:17:17.511Z,12.8
2018-05-07T00:18:19.540Z,12.8
2018-05-07T00:19:21.573Z,12.8
2018-05-07T00:20:23.613Z,12.8
2018-05-07T00:21:25.944Z,12.8
2018-05-07T00:22:28.070Z,12.8
2018-05-07T00:23:30.007Z,12.8
2018-05-07T00:24:32.034Z,12.8
2018-05-07T00:25:34.085Z,12.8
2018-05-07T00:26:36.549Z,12.9
2018-05-07T00:27:38.509Z,12.8
2018-05-07T00:28:40.537Z,12.9
2018-05-07T00:29:42.567Z,12.8
2018-05-07T00:30:44.611Z,12.8
2018-05-07T00:31:46.650Z,12.8
2018-05-07T00:32:49.265Z,12.8
2018-05-07T00:33:51.314Z,12.8
2018-05-07T00:34:53.694Z,12.8
2018-05-07T00:35:55.726Z,12.8
2018-05-07T00:36:58.053Z,12.8
2018-05-07T00:38:00.388Z,12.8
2018-05-07T00:39:02.427Z,12.8
2018-05-07T00:40:04.829Z,12.8
2018-05-07T00:41:07.160Z,12.8
2018-05-07T00:42:09.201Z,12.7
2018-05-07T00:43:11.238Z,12.7
2018-05-07T00:44:13.591Z,12.7
2018-05-07T00:45:15.640Z,12.7
2018-05-07T00:46:17.670Z,12.7
2018-05-07T00:47:19.702Z,12.7
2018-05-07T00:48:21.734Z,12.7
2018-05-07T00:49:23.770Z,12.6
2018-05-07T00:50:25.803Z,12.6
2018-05-07T00:51:27.849Z,12.6
2018-05-07T00:52:29.879Z,12.6
2018-05-07T00:53:32.198Z,12.6
2018-05-07T00:54:34.222Z,12.6
2018-05-07T00:55:36.259Z,12.6
2018-05-07T00:56:38.292Z,12.6
2018-05-07T00:57:40.625Z,12.5
2018-05-07T00:58:43.047Z,12.6
2018-05-07T00:59:45.085Z,12.5
2018-05-07T01:00:47.117Z,12.5
2018-05-07T01:01:49.162Z,12.5
2018-05-07T01:02:51.191Z,12.5
2018-05-07T01:03:53.500Z,12.5
2018-05-07T01:04:55.929Z,12.5
2018-05-07T01:05:57.968Z,12.5
2018-05-07T01:06:59.998Z,12.5
2018-05-07T01:08:02.021Z,12.5
2018-05-07T01:09:04.352Z,12.4
2018-05-07T01:10:06.388Z,12.4
2018-05-07T01:11:08.420Z,12.4
2018-05-07T01:12:10.444Z,12.4
2018-05-07T01:13:12.494Z,12.4
2018-05-07T01:14:14.521Z,12.4
2018-05-07T01:15:16.553Z,12.4
2018-05-07T01:16:18.590Z,12.4
2018-05-07T01:17:20.920Z,12.4
2018-05-07T01:18:22.950Z,12.3
2018-05-07T01:19:24.984Z,12.3
2018-05-07T01:20:27.015Z,12.3
2018-05-07T01:21:29.058Z,12.3
2018-05-07T01:22:31.092Z,12.3
2018-05-07T01:23:33.511Z,12.3
2018-05-07T01:24:35.539Z,12.3
2018-05-07T01:25:38.255Z,12.3
2018-05-07T01:26:40.581Z,12.2
2018-05-07T01:27:42.608Z,12.2
2018-05-07T01:28:44.643Z,12.2
2018-05-07T01:29:46.680Z,12.2
2018-05-07T01:30:48.712Z,12.2
2018-05-07T01:31:50.746Z,12.1
2018-05-07T01:32:53.163Z,12.1
2018-05-07T01:33:55.199Z,12.1
2018-05-07T01:34:57.220Z,12.1
2018-05-07T01:35:59.264Z,12.1
2018-05-07T01:37:01.294Z,12.1
2018-05-07T01:38:03.613Z,12.1
2018-05-07T01:39:05.649Z,12.1
2018-05-07T01:40:07.975Z,12.1
2018-05-07T01:41:10.009Z,12.1
2018-05-07T01:42:12.047Z,12.1
2018-05-07T01:43:14.359Z,12.1
2018-05-07T01:44:16.391Z,12.1
2018-05-07T01:45:18.433Z,12.1
2018-05-07T01:46:20.477Z,12.1
2018-05-07T01:47:22.798Z,12.1
2018-05-07T01:48:24.824Z,12.1
2018-05-07T01:49:26.864Z,12.1
2018-05-07T01:50:28.897Z,12.1
2018-05-07T01:51:31.217Z,12.1
2018-05-07T01:52:33.249Z,12
2018-05-07T01:53:35.290Z,12
2018-05-07T01:54:37.619Z,12
2018-05-07T01:55:39.907Z,12
2018-05-07T01:56:41.945Z,12
2018-05-07T01:57:43.973Z,11.9
2018-05-07T01:58:46.003Z,11.9
2018-05-07T01:59:48.035Z,11.9
2018-05-07T02:00:50.395Z,11.9
2018-05-07T02:01:52.710Z,11.9
2018-05-07T02:02:55.124Z,11.8
2018-05-07T02:03:57.155Z,11.8
2018-05-07T02:04:59.183Z,11.8
2018-05-07T02:06:01.229Z,11.8
2018-05-07T02:07:03.256Z,11.8
2018-05-07T02:08:05.293Z,11.8
2018-05-07T02:09:07.334Z,11.8
2018-05-07T02:10:09.361Z,11.8
2018-05-07T02:11:11.679Z,11.8
2018-05-07T02:12:13.716Z,11.8
2018-05-07T02:13:15.756Z,11.8
2018-05-07T02:14:17.787Z,11.8
2018-05-07T02:15:20.480Z,11.8
2018-05-07T02:16:22.518Z,11.8
2018-05-07T02:17:24.544Z,11.8
2018-05-07T02:18:26.584Z,11.8
2018-05-07T02:19:28.893Z,11.7
2018-05-07T02:20:30.930Z,11.7
2018-05-07T02:21:32.962Z,11.7
2018-05-07T02:22:34.990Z,11.7
2018-05-07T02:23:37.026Z,11.7
2018-05-07T02:24:39.057Z,11.7
2018-05-07T02:25:41.478Z,11.7
2018-05-07T02:26:43.510Z,11.7
2018-05-07T02:27:45.534Z,11.7
2018-05-07T02:28:47.565Z,11.7
2018-05-07T02:29:49.600Z,11.7
2018-05-07T02:30:52.311Z,11.7
2018-05-07T02:31:54.648Z,11.7
2018-05-07T02:32:56.691Z,11.7
2018-05-07T02:33:58.724Z,11.6
2018-05-07T02:35:00.787Z,11.6
2018-05-07T02:36:03.204Z,11.6
2018-05-07T02:37:05.534Z,11.7
2018-05-07T02:38:07.850Z,11.7
2018-05-07T02:39:10.271Z,11.7
2018-05-07T02:40:12.306Z,11.6
2018-05-07T02:41:14.721Z,11.7
2018-05-07T02:42:16.754Z,11.7
2018-05-07T02:43:19.177Z,11.7
2018-05-07T02:44:21.591Z,11.6
2018-05-07T02:45:24.739Z,11.6
2018-05-07T02:46:27.349Z,11.7
2018-05-07T02:47:29.382Z,11.6
2018-05-07T02:48:31.704Z,11.6
2018-05-07T02:49:34.026Z,11.6
2018-05-07T02:50:36.057Z,11.6
2018-05-07T02:51:38.384Z,11.6
2018-05-07T02:52:40.807Z,11.6
2018-05-07T02:53:42.850Z,11.6
2018-05-07T02:54:44.868Z,11.6
2018-05-07T02:55:47.292Z,11.6
2018-05-07T02:56:49.320Z,11.6
2018-05-07T02:57:51.660Z,11.6
2018-05-07T02:58:53.672Z,11.6
2018-05-07T02:59:55.699Z,11.6
2018-05-07T03:00:57.739Z,11.5
2018-05-07T03:01:59.771Z,11.5
2018-05-07T03:03:01.813Z,11.5
2018-05-07T03:04:03.841Z,11.5
2018-05-07T03:05:06.256Z,11.5
2018-05-07T03:06:08.299Z,11.5
2018-05-07T03:07:10.313Z,11.5
2018-05-07T03:08:12.349Z,11.5
2018-05-07T03:09:14.681Z,11.5
2018-05-07T03:10:16.714Z,11.5
2018-05-07T03:11:18.755Z,11.5
2018-05-07T03:12:20.784Z,11.5
2018-05-07T03:13:23.210Z,11.4
2018-05-07T03:14:25.237Z,11.5
2018-05-07T03:15:27.647Z,11.4
2018-05-07T03:16:29.691Z,11.4
2018-05-07T03:17:32.062Z,11.4
2018-05-07T03:18:34.375Z,11.4
2018-05-07T03:19:36.800Z,11.4
2018-05-07T03:20:39.046Z,11.4
2018-05-07T03:21:41.354Z,11.4
2018-05-07T03:22:43.392Z,11.4
2018-05-07T03:23:45.416Z,11.4
2018-05-07T03:24:47.529Z,11.4
2018-05-07T03:25:49.484Z,11.4
2018-05-07T03:26:51.512Z,11.4
2018-05-07T03:27:53.840Z,11.4
2018-05-07T03:28:56.162Z,11.4
2018-05-07T03:29:58.587Z,11.4
2018-05-07T03:31:01.012Z,11.4
2018-05-07T03:32:03.043Z,11.4
2018-05-07T03:33:05.069Z,11.4
2018-05-07T03:34:07.400Z,11.4
2018-05-07T03:35:10.130Z,11.4
2018-05-07T03:36:12.162Z,11.4
2018-05-07T03:37:14.593Z,11.4
2018-05-07T03:38:16.632Z,11.4
2018-05-07T03:39:18.666Z,11.4
2018-05-07T03:40:21.090Z,11.3
2018-05-07T03:41:23.100Z,11.3
2018-05-07T03:42:25.152Z,11.3
2018-05-07T03:43:27.175Z,11.3
2018-05-07T03:44:29.208Z,11.3
2018-05-07T03:45:31.245Z,11.3
2018-05-07T03:46:33.271Z,11.3
2018-05-07T03:47:35.297Z,11.3
2018-05-07T03:48:37.378Z,11.3
2018-05-07T03:49:39.777Z,11.3
2018-05-07T03:50:41.811Z,11.3
2018-05-07T03:51:43.843Z,11.3
2018-05-07T03:52:45.867Z,11.3
2018-05-07T03:53:47.903Z,11.3
2018-05-07T03:54:49.941Z,11.3
2018-05-07T03:55:51.968Z,11.3
2018-05-07T03:56:54.009Z,11.3
2018-05-07T03:57:56.045Z,11.3
2018-05-07T03:58:58.451Z,11.3
2018-05-07T04:00:00.489Z,11.3
2018-05-07T04:01:02.538Z,11.3
2018-05-07T04:02:04.869Z,11.3
2018-05-07T04:03:07.286Z,11.3
2018-05-07T04:04:09.610Z,11.3
2018-05-07T04:05:11.649Z,11.3
2018-05-07T04:06:13.669Z,11.3
2018-05-07T04:07:15.763Z,11.3
2018-05-07T04:08:17.743Z,11.3
2018-05-07T04:09:20.162Z,11.3
2018-05-07T04:10:22.190Z,11.3
2018-05-07T04:11:24.216Z,11.3
2018-05-07T04:12:26.249Z,11.3
2018-05-07T04:13:28.291Z,11.3
2018-05-07T04:14:30.326Z,11.3
2018-05-07T04:15:32.644Z,11.3
2018-05-07T04:16:34.669Z,11.2
2018-05-07T04:17:36.705Z,11.3
2018-05-07T04:18:38.735Z,11.2
2018-05-07T04:19:40.770Z,11.2
2018-05-07T04:20:43.181Z,11.1
2018-05-07T04:21:45.228Z,11.1
2018-05-07T04:22:47.247Z,11.1
2018-05-07T04:23:49.283Z,11.1
2018-05-07T04:24:51.313Z,11.2
2018-05-07T04:25:53.342Z,11.1
2018-05-07T04:26:55.378Z,11.1
2018-05-07T04:27:57.410Z,11.1
2018-05-07T04:28:59.446Z,11.1
2018-05-07T04:30:01.889Z,11.1
2018-05-07T04:31:04.188Z,11.1
2018-05-07T04:32:06.608Z,11.1
2018-05-07T04:33:08.634Z,11.2
2018-05-07T04:34:10.674Z,11.2
2018-05-07T04:35:12.995Z,11.2
2018-05-07T04:36:15.028Z,11.3
2018-05-07T04:37:17.055Z,11.3
2018-05-07T04:38:19.093Z,11.3
2018-05-07T04:39:21.503Z,11.3
2018-05-07T04:40:23.546Z,11.3
2018-05-07T04:41:25.581Z,11.3
2018-05-07T04:42:27.629Z,11.3
2018-05-07T04:43:29.661Z,11.3
2018-05-07T04:44:31.706Z,11.4
2018-05-07T04:45:34.024Z,11.5
2018-05-07T04:46:36.061Z,11.5
2018-05-07T04:47:38.095Z,11.5
2018-05-07T04:48:40.137Z,11.7
2018-05-07T04:49:42.169Z,11.7
2018-05-07T04:50:44.195Z,11.7
2018-05-07T04:51:46.235Z,11.8
2018-05-07T04:52:48.579Z,11.9
2018-05-07T04:53:50.584Z,11.9
2018-05-07T04:54:52.621Z,12
2018-05-07T04:55:54.667Z,12
2018-05-07T04:56:56.702Z,12
2018-05-07T04:57:58.730Z,12
2018-05-07T04:59:01.051Z,12.1
2018-05-07T05:00:03.082Z,12
2018-05-07T05:01:05.394Z,12.1
2018-05-07T05:02:07.427Z,12.1
2018-05-07T05:03:09.776Z,12.2
2018-05-07T05:04:11.817Z,12.2
2018-05-07T05:05:13.844Z,12.2
2018-05-07T05:06:16.281Z,12.3
2018-05-07T05:07:18.797Z,12.3
2018-05-07T05:08:20.823Z,12.4
2018-05-07T05:09:22.848Z,12.4
2018-05-07T05:10:24.884Z,12.4
2018-05-07T05:11:27.228Z,12.5
2018-05-07T05:12:29.255Z,12.6
2018-05-07T05:13:31.295Z,12.6
2018-05-07T05:14:33.332Z,12.6
2018-05-07T05:15:35.360Z,12.6
2018-05-07T05:16:37.682Z,12.7
2018-05-07T05:17:39.709Z,12.7
2018-05-07T05:18:42.055Z,12.8
2018-05-07T05:19:44.400Z,12.8
2018-05-07T05:20:46.434Z,12.9
2018-05-07T05:21:48.483Z,12.9
2018-05-07T05:22:50.512Z,12.9
2018-05-07T05:23:52.544Z,13
2018-05-07T05:24:54.578Z,13
2018-05-07T05:25:56.615Z,13.1
2018-05-07T05:26:58.643Z,13.1
2018-05-07T05:28:00.979Z,13.1
2018-05-07T05:29:03.287Z,13.2
2018-05-07T05:30:05.322Z,13.3
2018-05-07T05:31:07.636Z,13.3
2018-05-07T05:32:09.670Z,13.4
2018-05-07T05:33:11.742Z,13.4
2018-05-07T05:34:13.747Z,13.5
2018-05-07T05:35:15.772Z,13.6
2018-05-07T05:36:17.822Z,13.7
2018-05-07T05:37:19.926Z,13.7
2018-05-07T05:38:21.887Z,13.7
2018-05-07T05:39:23.926Z,13.8
2018-05-07T05:40:25.963Z,13.8
2018-05-07T05:41:28.003Z,13.8
2018-05-07T05:42:30.318Z,13.8
2018-05-07T05:43:32.418Z,13.9
2018-05-07T05:44:35.041Z,13.9
2018-05-07T05:45:37.071Z,14
2018-05-07T05:46:39.117Z,14.1
2018-05-07T05:47:41.431Z,14.1
2018-05-07T05:48:43.469Z,14.2
2018-05-07T05:49:45.509Z,14.1
2018-05-07T05:50:47.546Z,14.2
2018-05-07T05:51:49.577Z,14.2
2018-05-07T05:52:51.902Z,14.3
2018-05-07T05:53:53.927Z,14.4
2018-05-07T05:54:55.978Z,14.4
2018-05-07T05:55:58.299Z,14.4
2018-05-07T05:57:00.341Z,14.5
2018-05-07T05:58:02.761Z,14.5
2018-05-07T05:59:04.798Z,14.6
2018-05-07T06:00:06.839Z,14.6
2018-05-07T06:01:09.167Z,14.6
2018-05-07T06:02:11.216Z,14.7
2018-05-07T06:03:13.580Z,14.7
2018-05-07T06:04:15.905Z,14.8
2018-05-07T06:05:17.947Z,14.8
2018-05-07T06:06:19.983Z,14.9
2018-05-07T06:07:22.718Z,14.9
2018-05-07T06:08:24.746Z,14.9
2018-05-07T06:09:26.785Z,15
2018-05-07T06:10:28.821Z,15
2018-05-07T06:11:30.867Z,15.1
2018-05-07T06:12:32.909Z,15.2
2018-05-07T06:13:34.951Z,15.2
2018-05-07T06:14:37.469Z,15.3
2018-05-07T06:15:39.417Z,15.3
2018-05-07T06:16:41.449Z,15.3
2018-05-07T06:17:43.506Z,15.4
2018-05-07T06:18:45.533Z,15.4
2018-05-07T06:19:47.577Z,15.4
2018-05-07T06:20:49.898Z,15.5
2018-05-07T06:21:51.924Z,15.5
2018-05-07T06:22:53.974Z,15.6
2018-05-07T06:23:56.020Z,15.6
2018-05-07T06:24:58.447Z,15.7
2018-05-07T06:26:00.875Z,15.7
2018-05-07T06:27:02.916Z,15.8
2018-05-07T06:28:04.956Z,15.8
2018-05-07T06:29:06.992Z,15.8
2018-05-07T06:30:09.040Z,15.8
2018-05-07T06:31:11.122Z,15.9
2018-05-07T06:32:13.179Z,15.9
2018-05-07T06:33:15.236Z,15.9
2018-05-07T06:34:17.801Z,16
2018-05-07T06:35:19.771Z,16
2018-05-07T06:36:21.817Z,16.2
2018-05-07T06:37:23.903Z,16.2
2018-05-07T06:38:25.922Z,16.2
2018-05-07T06:39:28.247Z,16.3
2018-05-07T06:40:30.289Z,16.3
2018-05-07T06:41:32.324Z,16.4
2018-05-07T06:42:34.376Z,16.4
2018-05-07T06:43:36.723Z,16.5
2018-05-07T06:44:39.048Z,16.5
2018-05-07T06:45:41.150Z,16.5
2018-05-07T06:46:43.133Z,16.6
2018-05-07T06:47:45.176Z,16.6
2018-05-07T06:48:47.222Z,16.7
2018-05-07T06:49:49.634Z,16.7
2018-05-07T06:50:51.971Z,16.7
2018-05-07T06:51:54.029Z,16.7
2018-05-07T06:52:56.072Z,16.8
2018-05-07T06:53:58.112Z,16.8
2018-05-07T06:55:00.157Z,16.9
2018-05-07T06:56:02.484Z,16.9
2018-05-07T06:57:04.528Z,17
2018-05-07T06:58:06.569Z,17
2018-05-07T06:59:08.620Z,17
2018-05-07T07:00:10.671Z,17.1
2018-05-07T07:01:12.706Z,17.1
2018-05-07T07:02:15.269Z,17.1
2018-05-07T07:03:17.604Z,17.1
2018-05-07T07:04:20.327Z,17.1
2018-05-07T07:05:22.366Z,17.1
2018-05-07T07:06:24.416Z,17.1
2018-05-07T07:07:26.473Z,17.1
2018-05-07T07:08:29.889Z,17.1
2018-05-07T07:09:31.753Z,17.1
2018-05-07T07:10:33.798Z,17.1
2018-05-07T07:11:35.832Z,17.2
2018-05-07T07:12:37.867Z,17.2
2018-05-07T07:13:39.904Z,17.2
2018-05-07T07:14:41.950Z,17.2
2018-05-07T07:15:43.985Z,17.2
2018-05-07T07:16:46.309Z,17.2
2018-05-07T07:17:48.369Z,17.3
2018-05-07T07:18:50.404Z,17.3
2018-05-07T07:19:52.852Z,17.3
2018-05-07T07:20:54.892Z,17.4
2018-05-07T07:21:56.926Z,17.5
2018-05-07T07:22:58.974Z,17.6
2018-05-07T07:24:01.007Z,17.7
2018-05-07T07:25:03.047Z,17.7
2018-05-07T07:26:05.095Z,17.8
2018-05-07T07:27:07.136Z,17.9
2018-05-07T07:28:09.758Z,17.9
2018-05-07T07:29:12.133Z,17.9
2018-05-07T07:30:14.167Z,18
2018-05-07T07:31:16.220Z,18
2018-05-07T07:32:18.252Z,18
2018-05-07T07:33:20.588Z,18.1
2018-05-07T07:34:22.921Z,18.1
2018-05-07T07:35:25.463Z,18.1
2018-05-07T07:36:27.788Z,18.2
2018-05-07T07:37:29.826Z,18.3
2018-05-07T07:38:32.268Z,18.3
2018-05-07T07:39:34.918Z,18.4
2018-05-07T07:40:36.859Z,18.4
2018-05-07T07:41:38.913Z,18.4
2018-05-07T07:42:40.958Z,18.5
2018-05-07T07:43:42.983Z,18.5
2018-05-07T07:44:45.033Z,18.6
2018-05-07T07:45:47.074Z,18.6
2018-05-07T07:46:49.409Z,18.7
2018-05-07T07:47:51.459Z,18.7
2018-05-07T07:48:53.496Z,18.8
2018-05-07T07:49:55.844Z,18.9
2018-05-07T07:50:57.877Z,18.9
2018-05-07T07:51:59.917Z,19
2018-05-07T07:53:01.973Z,19.1
2018-05-07T07:54:04.600Z,19.1
2018-05-07T07:55:06.645Z,19.2
2018-05-07T07:56:08.690Z,19.3
2018-05-07T07:57:11.016Z,19.4
2018-05-07T07:58:13.054Z,19.4
2018-05-07T07:59:15.099Z,19.4
2018-05-07T08:00:17.158Z,19.4
2018-05-07T08:01:19.487Z,19.4
2018-05-07T08:02:21.924Z,19.5
2018-05-07T08:03:24.263Z,19.5
2018-05-07T08:04:26.690Z,19.5
2018-05-07T08:05:28.750Z,19.5
2018-05-07T08:06:31.070Z,19.6
2018-05-07T08:07:33.115Z,19.6
2018-05-07T08:08:35.449Z,19.7
2018-05-07T08:09:37.492Z,19.8
2018-05-07T08:10:39.830Z,19.9
2018-05-07T08:11:41.877Z,19.8
2018-05-07T08:12:43.912Z,20
2018-05-07T08:13:45.961Z,20.1
2018-05-07T08:14:48.007Z,20.3
2018-05-07T08:15:50.057Z,20.4
2018-05-07T08:16:52.105Z,20.5
2018-05-07T08:17:54.450Z,20.4
2018-05-07T08:18:56.879Z,20.5
2018-05-07T08:19:58.923Z,20.4
2018-05-07T08:21:00.964Z,20.8
2018-05-07T08:22:03.015Z,20.9
2018-05-07T08:23:05.055Z,21.1
2018-05-07T08:24:07.101Z,21
2018-05-07T08:25:09.147Z,21.1
2018-05-07T08:26:11.197Z,21.1
2018-05-07T08:27:13.242Z,20.9
2018-05-07T08:28:15.289Z,21.1
2018-05-07T08:29:17.331Z,21.4
2018-05-07T08:30:19.437Z,21.3
2018-05-07T08:31:21.424Z,21.6
2018-05-07T08:32:24.158Z,22.1
2018-05-07T08:33:26.197Z,22.1
2018-05-07T08:34:28.244Z,22.3
2018-05-07T08:35:30.288Z,22.2
2018-05-07T08:36:32.662Z,22.3
2018-05-07T08:37:34.706Z,22.1
2018-05-07T08:38:36.764Z,22.2
2018-05-07T08:39:38.815Z,22.1
2018-05-07T08:40:41.151Z,22.5
2018-05-07T08:41:43.193Z,22.6
2018-05-07T08:42:45.235Z,22.8
2018-05-07T08:43:47.273Z,22.7
2018-05-07T08:44:49.325Z,22.5
2018-05-07T08:45:51.358Z,22.5
2018-05-07T08:46:53.805Z,22.7
2018-05-07T08:47:56.122Z,22.8
2018-05-07T08:48:58.454Z,23.2
2018-05-07T08:50:00.518Z,23
2018-05-07T08:51:02.662Z,23.2
2018-05-07T08:52:04.612Z,23.1
2018-05-07T08:53:06.767Z,23
2018-05-07T08:54:08.701Z,23.3
2018-05-07T08:55:10.768Z,23.2
2018-05-07T08:56:12.794Z,22.6
2018-05-07T08:57:14.857Z,22.5
2018-05-07T08:58:16.900Z,22.6
2018-05-07T08:59:18.951Z,22.8
2018-05-07T09:00:20.994Z,22.5
2018-05-07T09:01:23.034Z,22.9
2018-05-07T09:02:25.075Z,23
2018-05-07T09:03:27.123Z,23
2018-05-07T09:04:29.161Z,23.1
2018-05-07T09:05:31.211Z,23.1
2018-05-07T09:06:33.257Z,23.4
2018-05-07T09:07:35.304Z,23.6
2018-05-07T09:08:37.361Z,23.7
2018-05-07T09:09:39.413Z,23.6
2018-05-07T09:10:41.456Z,23.8
2018-05-07T09:11:43.500Z,23.9
2018-05-07T09:12:45.549Z,23.4
2018-05-07T09:13:47.610Z,23.6
2018-05-07T09:14:49.970Z,23.8
2018-05-07T09:15:52.015Z,23.6
2018-05-07T09:16:54.065Z,23.6
2018-05-07T09:17:56.109Z,24
2018-05-07T09:18:58.450Z,23.8
2018-05-07T09:20:00.497Z,24
2018-05-07T09:21:02.827Z,24.3
2018-05-07T09:22:05.162Z,24.3
2018-05-07T09:23:07.210Z,23.9
2018-05-07T09:24:09.545Z,23.9
2018-05-07T09:25:11.593Z,23.8
2018-05-07T09:26:14.024Z,23.7
2018-05-07T09:27:16.086Z,23.8
2018-05-07T09:28:18.126Z,24.2
2018-05-07T09:29:20.472Z,24.6
2018-05-07T09:30:22.532Z,25
2018-05-07T09:31:24.592Z,24.2
2018-05-07T09:32:26.637Z,24.5
2018-05-07T09:33:28.686Z,24.6
2018-05-07T09:34:30.736Z,24.4
2018-05-07T09:35:33.501Z,24.1
2018-05-07T09:36:35.551Z,24.3
2018-05-07T09:37:37.616Z,24.5
2018-05-07T09:38:39.671Z,24.9
2018-05-07T09:39:41.705Z,24.7
2018-05-07T09:40:43.759Z,24.7
2018-05-07T09:41:45.810Z,24.7
2018-05-07T09:42:47.865Z,24.5
2018-05-07T09:43:49.922Z,24.5
2018-05-07T09:44:52.267Z,24.1
2018-05-07T09:45:54.616Z,24.3
2018-05-07T09:46:56.661Z,24.6
2018-05-07T09:47:59.100Z,24.7
2018-05-07T09:49:01.178Z,24.5
2018-05-07T09:50:03.223Z,25
2018-05-07T09:51:05.282Z,24.9
2018-05-07T09:52:07.328Z,25.1
2018-05-07T09:53:09.689Z,24.9
2018-05-07T09:54:11.725Z,24.5
2018-05-07T09:55:13.780Z,24.8
2018-05-07T09:56:15.832Z,24.5
2018-05-07T09:57:17.888Z,25.1
2018-05-07T09:58:19.942Z,24.9
2018-05-07T09:59:22.003Z,24.3
2018-05-07T10:00:24.047Z,24.7
2018-05-07T10:01:26.405Z,25
2018-05-07T10:02:28.768Z,24.5
2018-05-07T10:03:30.793Z,24.7
2018-05-07T10:04:32.850Z,25.3
2018-05-07T10:05:35.190Z,25.5
2018-05-07T10:06:37.951Z,25.4
2018-05-07T10:07:39.996Z,25.6
2018-05-07T10:08:42.055Z,25.4
2018-05-07T10:09:44.119Z,25
2018-05-07T10:10:46.167Z,25.1
2018-05-07T10:11:48.233Z,25.3
2018-05-07T10:12:50.566Z,25.7
2018-05-07T10:13:52.624Z,25.8
2018-05-07T10:14:54.980Z,25.1
2018-05-07T10:15:57.045Z,25
2018-05-07T10:16:59.810Z,25.3
2018-05-07T10:18:01.822Z,25.3
2018-05-07T10:19:04.251Z,25.2
2018-05-07T10:20:06.309Z,25
2018-05-07T10:21:08.357Z,25.5
2018-05-07T10:22:10.419Z,25.2
2018-05-07T10:23:12.475Z,25.1
2018-05-07T10:24:14.567Z,25.5
2018-05-07T10:25:16.596Z,25.6
2018-05-07T10:26:18.656Z,25.1
2018-05-07T10:27:20.997Z,25.2
2018-05-07T10:28:23.061Z,25.8
2018-05-07T10:29:25.109Z,26.3
2018-05-07T10:30:27.174Z,26.3
2018-05-07T10:31:29.225Z,26.4
2018-05-07T10:32:31.286Z,26.4
2018-05-07T10:33:33.341Z,26
2018-05-07T10:34:35.664Z,26
2018-05-07T10:35:38.010Z,26.1
2018-05-07T10:36:40.072Z,26.1
2018-05-07T10:37:42.134Z,26
2018-05-07T10:38:44.200Z,26.1
2018-05-07T10:39:46.251Z,26
2018-05-07T10:40:48.702Z,25.5
2018-05-07T10:41:50.745Z,25.5
2018-05-07T10:42:52.812Z,25.5
2018-05-07T10:43:55.167Z,25.8
2018-05-07T10:44:57.505Z,25.3
2018-05-07T10:45:59.562Z,25.7
2018-05-07T10:47:01.612Z,26.2
2018-05-07T10:48:03.674Z,26.2
2018-05-07T10:49:05.764Z,26.5
2018-05-07T10:50:07.791Z,26.5
2018-05-07T10:51:09.844Z,26.3
2018-05-07T10:52:12.291Z,25.9
2018-05-07T10:53:14.340Z,26
2018-05-07T10:54:16.388Z,26.1
2018-05-07T10:55:18.455Z,25.9
2018-05-07T10:56:20.513Z,25.9
2018-05-07T10:57:22.574Z,25.7
2018-05-07T10:58:24.633Z,25.7
2018-05-07T10:59:26.701Z,25.8
2018-05-07T11:00:29.029Z,25.7
2018-05-07T11:01:31.088Z,26.2
2018-05-07T11:02:33.162Z,26.3
2018-05-07T11:03:35.219Z,26.5
2018-05-07T11:04:37.278Z,26.4
2018-05-07T11:05:39.334Z,26.6
2018-05-07T11:06:41.388Z,26.6
2018-05-07T11:07:43.449Z,26.4
2018-05-07T11:08:45.503Z,26.3
2018-05-07T11:09:47.560Z,26.1
2018-05-07T11:10:49.624Z,26.3
2018-05-07T11:11:51.672Z,26.7
2018-05-07T11:12:54.128Z,26.7
2018-05-07T11:13:56.577Z,26.8
2018-05-07T11:14:58.626Z,26.8
2018-05-07T11:16:00.683Z,26.9
2018-05-07T11:17:02.761Z,26.9
2018-05-07T11:18:04.823Z,26.8
2018-05-07T11:19:06.884Z,26.5
2018-05-07T11:20:09.220Z,26.6
2018-05-07T11:21:11.572Z,26.4
2018-05-07T11:22:13.623Z,26
2018-05-07T11:23:15.683Z,25.6
2018-05-07T11:24:17.753Z,26.1
2018-05-07T11:25:19.822Z,26.5
2018-05-07T11:26:21.875Z,27
2018-05-07T11:27:23.925Z,26.5
2018-05-07T11:28:25.980Z,26.4
2018-05-07T11:29:28.046Z,26.7
2018-05-07T11:30:30.092Z,27
2018-05-07T11:31:32.158Z,27.2
2018-05-07T11:32:34.220Z,27
2018-05-07T11:33:36.266Z,26.9
2018-05-07T11:34:38.327Z,26.4
2018-05-07T11:35:40.777Z,26.4
2018-05-07T11:36:43.224Z,26.6
2018-05-07T11:37:45.279Z,26.2
2018-05-07T11:38:47.330Z,26.3
2018-05-07T11:39:49.399Z,26.9
2018-05-07T11:40:52.047Z,26.4
2018-05-07T11:41:54.103Z,27.2
2018-05-07T11:42:56.177Z,27.2
2018-05-07T11:43:58.228Z,27
2018-05-07T11:45:00.283Z,26.4
2018-05-07T11:46:02.346Z,26.5
2018-05-07T11:47:04.403Z,26.5
2018-05-07T11:48:06.472Z,27.2
2018-05-07T11:49:08.523Z,27.6
2018-05-07T11:50:10.960Z,27.1
2018-05-07T11:51:13.020Z,26.8
2018-05-07T11:52:15.077Z,27
2018-05-07T11:53:17.651Z,27.3
2018-05-07T11:54:19.670Z,26.6
2018-05-07T11:55:21.774Z,26.3
2018-05-07T11:56:23.781Z,26.5
2018-05-07T11:57:25.832Z,26.5
2018-05-07T11:58:27.891Z,27.3
2018-05-07T11:59:29.947Z,27.2
2018-05-07T12:00:32.009Z,27
2018-05-07T12:01:34.069Z,26.9
2018-05-07T12:02:36.189Z,26.9
2018-05-07T12:03:38.242Z,27.6
2018-05-07T12:04:40.601Z,27.3
2018-05-07T12:05:42.661Z,27.2
2018-05-07T12:06:44.716Z,27.2
2018-05-07T12:07:47.045Z,27.1
2018-05-07T12:08:49.107Z,27.5
2018-05-07T12:09:51.168Z,27.5
2018-05-07T12:10:53.223Z,27.4
2018-05-07T12:11:55.306Z,27.4
2018-05-07T12:12:57.361Z,27.1
2018-05-07T12:13:59.422Z,27.2
2018-05-07T12:15:01.884Z,27.5
2018-05-07T12:16:04.474Z,27.2
2018-05-07T12:17:06.477Z,27
2018-05-07T12:18:08.917Z,27.3
2018-05-07T12:19:10.984Z,26.8
2018-05-07T12:20:13.046Z,27
2018-05-07T12:21:15.111Z,27.8
2018-05-07T12:22:17.165Z,27.5
2018-05-07T12:23:19.375Z,27.9
2018-05-07T12:24:21.284Z,28.5
2018-05-07T12:25:23.336Z,28.3
2018-05-07T12:26:25.388Z,28.4
2018-05-07T12:27:27.446Z,28.2
2018-05-07T12:28:29.792Z,28.3
2018-05-07T12:29:31.857Z,27.7
2018-05-07T12:30:33.917Z,28.1
2018-05-07T12:31:36.977Z,28.1
2018-05-07T12:32:39.943Z,27.3
2018-05-07T12:33:42.379Z,27.7
2018-05-07T12:34:44.453Z,28.4
2018-05-07T12:35:46.817Z,28.7
2018-05-07T12:36:48.880Z,28.1
2018-05-07T12:37:50.934Z,28
2018-05-07T12:38:52.985Z,28.3
2018-05-07T12:39:55.054Z,27.6
2018-05-07T12:40:57.106Z,27.3
2018-05-07T12:41:59.218Z,27
2018-05-07T12:43:01.580Z,27.1
2018-05-07T12:44:03.637Z,28
2018-05-07T12:45:05.692Z,28.2
2018-05-07T12:46:07.757Z,28.1
2018-05-07T12:47:09.829Z,28
2018-05-07T12:48:11.889Z,28.4
2018-05-07T12:49:13.942Z,28.3
2018-05-07T12:50:16.002Z,28.3
2018-05-07T12:51:18.061Z,28.1
2018-05-07T12:52:20.117Z,28.3
2018-05-07T12:53:22.553Z,28
2018-05-07T12:54:24.654Z,27.7
2018-05-07T12:55:26.668Z,27.9
2018-05-07T12:56:28.711Z,28.5
2018-05-07T12:57:30.771Z,28.4
2018-05-07T12:58:32.836Z,28.1
2018-05-07T12:59:34.897Z,28.1
2018-05-07T13:00:36.972Z,28.4
2018-05-07T13:01:39.324Z,28.1
2018-05-07T13:02:41.767Z,28.3
2018-05-07T13:03:44.272Z,28.2
2018-05-07T13:04:46.390Z,28.4
2018-05-07T13:05:49.237Z,28.4
2018-05-07T13:06:51.678Z,28.2
2018-05-07T13:07:53.788Z,28.3
2018-05-07T13:08:55.849Z,27.8
2018-05-07T13:09:57.905Z,28.3
2018-05-07T13:11:00.006Z,28
2018-05-07T13:12:02.029Z,28.1
2018-05-07T13:13:04.176Z,28.4
2018-05-07T13:14:06.158Z,28.2
2018-05-07T13:15:08.213Z,28.5
2018-05-07T13:16:10.276Z,27.9
2018-05-07T13:17:12.391Z,28.5
2018-05-07T13:18:15.019Z,28.8
2018-05-07T13:19:17.086Z,28.6
2018-05-07T13:20:19.150Z,27.4
2018-05-07T13:21:21.197Z,27.9
2018-05-07T13:22:23.265Z,27.6
2018-05-07T13:23:25.324Z,28.1
2018-05-07T13:24:27.665Z,27.7
2018-05-07T13:25:29.723Z,27.8
2018-05-07T13:26:31.779Z,28.4
2018-05-07T13:27:33.850Z,28
2018-05-07T13:28:35.902Z,27.9
2018-05-07T13:29:37.964Z,28
2018-05-07T13:30:40.029Z,27.3
2018-05-07T13:31:42.087Z,27.3
2018-05-07T13:32:44.149Z,27.8
2018-05-07T13:33:46.202Z,28.4
2018-05-07T13:34:48.256Z,28.4
2018-05-07T13:35:50.710Z,28.4
2018-05-07T13:36:52.848Z,28.1
2018-05-07T13:37:54.825Z,28.3
2018-05-07T13:38:56.888Z,28.4
2018-05-07T13:39:59.242Z,28.5
2018-05-07T13:41:01.298Z,28.1
2018-05-07T13:42:03.366Z,28.3
2018-05-07T13:43:05.764Z,27.8
2018-05-07T13:44:07.813Z,28
2018-05-07T13:45:09.875Z,27.6
2018-05-07T13:46:12.226Z,28.3
2018-05-07T13:47:14.580Z,27.6
2018-05-07T13:48:16.654Z,27.5
2018-05-07T13:49:19.383Z,27.5
2018-05-07T13:50:21.451Z,27.6
2018-05-07T13:51:23.810Z,27.9